createdAt,value
2022-11-05T00:00:31.050Z,23.85
2022-11-05T00:03:18.134Z,27.13
2022-11-05T00:06:05.292Z,25.60
2022-11-05T00:08:50.927Z,28.83
2022-11-05T00:11:19.274Z,30.58
2022-11-05T00:14:04.908Z,24.17
2022-11-05T00:16:45.058Z,29.20
2022-11-05T00:19:15.023Z,28.80
2022-11-05T00:22:00.821Z,28.48
2022-11-05T00:24:46.373Z,31.52
2022-11-05T00:27:14.838Z,30.00
2022-11-05T00:29:45.402Z,24.85
2022-11-05T00:32:13.730Z,28.02
2022-11-05T00:34:43.470Z,33.97
2022-11-05T00:37:11.696Z,27.63
2022-11-05T00:39:39.869Z,26.85
2022-11-05T00:42:25.645Z,27.00
2022-11-05T00:45:02.786Z,28.58
2022-11-05T00:47:49.490Z,31.67
2022-11-05T00:50:19.833Z,28.02
2022-11-05T00:52:57.744Z,29.63
2022-11-05T00:55:29.351Z,31.48
2022-11-05T00:57:58.612Z,29.63
2022-11-05T01:00:28.772Z,25.33
2022-11-05T01:02:59.939Z,30.88
2022-11-05T01:05:30.273Z,27.70
2022-11-05T01:07:58.911Z,27.90
2022-11-05T01:10:28.292Z,30.95
2022-11-05T01:12:56.618Z,32.00
2022-11-05T01:15:24.993Z,27.33
2022-11-05T01:17:53.472Z,32.20
2022-11-05T01:20:21.728Z,28.42
2022-11-05T01:22:51.233Z,24.15
2022-11-05T01:25:19.641Z,27.30
2022-11-05T01:27:47.799Z,30.70
2022-11-05T01:30:16.353Z,26.98
2022-11-05T01:32:44.870Z,29.42
2022-11-05T01:35:15.209Z,30.90
2022-11-05T01:37:43.580Z,30.17
2022-11-05T01:40:14.836Z,24.92
2022-11-05T01:42:43.111Z,28.23
2022-11-05T01:45:17.652Z,27.55
2022-11-05T01:48:12.300Z,25.33
2022-11-05T01:50:44.313Z,27.95
2022-11-05T01:53:21.746Z,26.02
2022-11-05T01:55:56.840Z,23.55
2022-11-05T01:58:33.696Z,29.75
2022-11-05T02:01:02.232Z,28.10
2022-11-05T02:03:31.806Z,25.52
2022-11-05T02:06:03.905Z,29.92
2022-11-05T02:08:49.638Z,23.98
2022-11-05T02:11:21.067Z,29.23
2022-11-05T02:13:50.877Z,26.70
2022-11-05T02:16:30.896Z,29.98
2022-11-05T02:19:14.529Z,31.00
2022-11-05T02:22:03.866Z,30.70
2022-11-05T02:25:08.284Z,30.90
2022-11-05T02:28:04.002Z,26.50
2022-11-05T02:30:42.348Z,30.33
2022-11-05T02:33:35.356Z,28.52
2022-11-05T02:36:28.511Z,26.85
2022-11-05T02:39:06.842Z,30.63
2022-11-05T02:41:41.876Z,29.45
2022-11-05T02:44:21.551Z,32.58
2022-11-05T02:46:58.272Z,28.13
2022-11-05T02:49:39.406Z,30.10
2022-11-05T02:52:14.855Z,30.95
2022-11-05T02:54:48.458Z,29.35
2022-11-05T02:57:16.733Z,27.80
2022-11-05T02:59:44.847Z,28.20
2022-11-05T03:02:14.602Z,31.48
2022-11-05T03:04:43.007Z,29.00
2022-11-05T03:07:31.896Z,31.30
2022-11-05T03:10:40.570Z,28.88
2022-11-05T03:13:17.510Z,28.70
2022-11-05T03:15:57.454Z,31.92
2022-11-05T03:18:34.039Z,27.92
2022-11-05T03:21:06.196Z,33.00
2022-11-05T03:23:42.678Z,30.77
2022-11-05T03:26:17.633Z,28.50
2022-11-05T03:28:49.966Z,33.33
2022-11-05T03:31:19.919Z,29.80
2022-11-05T03:33:52.347Z,32.28
2022-11-05T03:36:24.138Z,28.13
2022-11-05T03:38:55.307Z,32.55
2022-11-05T03:41:25.224Z,29.67
2022-11-05T03:43:58.524Z,25.25
2022-11-05T03:46:31.576Z,29.05
2022-11-05T03:49:04.003Z,34.33
2022-11-05T03:51:39.824Z,32.47
2022-11-05T03:54:08.760Z,30.70
2022-11-05T03:56:41.484Z,34.85
2022-11-05T03:59:11.011Z,33.35
2022-11-05T04:01:40.252Z,28.17
2022-11-05T04:04:10.882Z,33.20
2022-11-05T04:06:56.394Z,32.70
2022-11-05T04:09:42.427Z,36.40
2022-11-05T04:12:29.052Z,35.03
2022-11-05T04:14:57.407Z,33.50
2022-11-05T04:17:24.685Z,31.70
2022-11-05T04:20:11.659Z,32.10
2022-11-05T04:22:57.694Z,35.80
2022-11-05T04:25:25.992Z,32.45
2022-11-05T04:27:54.309Z,31.80
2022-11-05T04:30:21.857Z,34.35
2022-11-05T04:32:58.423Z,37.88
2022-11-05T04:35:29.650Z,34.15
2022-11-05T04:37:57.913Z,33.00
2022-11-05T04:40:26.636Z,33.08
2022-11-05T04:42:56.363Z,35.72
2022-11-05T04:45:25.160Z,35.30
2022-11-05T04:47:53.526Z,32.28
2022-11-05T04:50:21.703Z,39.45
2022-11-05T04:52:51.303Z,42.50
2022-11-05T04:55:19.686Z,36.88
2022-11-05T04:57:49.451Z,31.67
2022-11-05T05:00:18.823Z,44.75
2022-11-05T05:02:47.728Z,31.83
2022-11-05T05:05:16.445Z,34.92
2022-11-05T05:07:44.688Z,34.95
2022-11-05T05:10:14.325Z,39.35
2022-11-05T05:12:42.517Z,33.58
2022-11-05T05:15:10.720Z,38.33
2022-11-05T05:17:38.993Z,32.30
2022-11-05T05:20:25.170Z,35.95
2022-11-05T05:22:54.555Z,38.78
2022-11-05T05:25:24.469Z,37.20
2022-11-05T05:27:52.786Z,37.85
2022-11-05T05:30:20.961Z,41.53
2022-11-05T05:32:49.262Z,38.25
2022-11-05T05:35:18.029Z,45.13
2022-11-05T05:37:46.347Z,36.80
2022-11-05T05:40:14.540Z,51.38
2022-11-05T05:42:44.161Z,39.90
2022-11-05T05:45:13.309Z,41.35
2022-11-05T05:47:41.623Z,38.72
2022-11-05T05:50:09.851Z,38.28
2022-11-05T05:52:38.087Z,38.65
2022-11-05T05:55:06.926Z,40.85
2022-11-05T05:57:35.574Z,38.85
2022-11-05T06:00:05.879Z,48.10
2022-11-05T06:02:39.918Z,42.85
2022-11-05T06:05:08.632Z,42.75
2022-11-05T06:07:37.627Z,39.65
2022-11-05T06:10:07.059Z,39.20
2022-11-05T06:12:35.675Z,36.83
2022-11-05T06:15:05.981Z,39.30
2022-11-05T06:17:34.956Z,38.65
2022-11-05T06:20:03.423Z,40.45
2022-11-05T06:22:31.625Z,37.15
2022-11-05T06:24:59.821Z,38.10
2022-11-05T06:27:29.415Z,36.47
2022-11-05T06:29:57.615Z,37.38
2022-11-05T06:32:27.157Z,34.60
2022-11-05T06:34:55.328Z,37.40
2022-11-05T06:37:23.586Z,39.35
2022-11-05T06:39:51.735Z,37.88
2022-11-05T06:42:19.933Z,37.88
2022-11-05T06:44:48.412Z,39.35
2022-11-05T06:47:16.663Z,38.05
2022-11-05T06:49:46.230Z,42.38
2022-11-05T06:52:15.755Z,39.75
2022-11-05T06:54:44.262Z,37.70
2022-11-05T06:57:13.364Z,35.53
2022-11-05T06:59:41.825Z,39.33
2022-11-05T07:02:13.993Z,38.55
2022-11-05T07:04:42.966Z,37.40
2022-11-05T07:07:12.517Z,37.88
2022-11-05T07:09:43.176Z,41.72
2022-11-05T07:12:11.470Z,42.28
2022-11-05T07:14:39.588Z,38.03
2022-11-05T07:17:07.787Z,41.72
2022-11-05T07:19:35.954Z,45.88
2022-11-05T07:22:04.169Z,40.22
2022-11-05T07:24:33.647Z,35.55
2022-11-05T07:27:01.824Z,38.55
2022-11-05T07:29:29.975Z,48.88
2022-11-05T07:31:58.378Z,37.42
2022-11-05T07:34:26.998Z,40.72
2022-11-05T07:36:55.340Z,36.42
2022-11-05T07:39:23.511Z,38.30
2022-11-05T07:41:54.952Z,39.47
2022-11-05T07:44:23.355Z,45.33
2022-11-05T07:46:51.786Z,40.47
2022-11-05T07:49:20.073Z,39.50
2022-11-05T07:51:48.240Z,36.33
2022-11-05T07:54:16.490Z,36.22
2022-11-05T07:56:44.617Z,42.13
2022-11-05T07:59:14.254Z,39.63
2022-11-05T08:01:42.581Z,38.33
2022-11-05T08:04:10.892Z,38.38
2022-11-05T08:06:39.051Z,43.25
2022-11-05T08:09:08.148Z,46.47
2022-11-05T08:11:36.315Z,39.72
2022-11-05T08:14:04.498Z,42.50
2022-11-05T08:16:34.104Z,47.65
2022-11-05T08:19:02.336Z,42.20
2022-11-05T08:21:30.466Z,44.25
2022-11-05T08:23:58.691Z,42.30
2022-11-05T08:26:26.822Z,43.65
2022-11-05T08:28:55.128Z,44.13
2022-11-05T08:31:23.306Z,41.92
2022-11-05T08:33:57.126Z,39.05
2022-11-05T08:36:28.078Z,40.00
2022-11-05T08:38:56.676Z,37.63
2022-11-05T08:41:25.188Z,36.45
2022-11-05T08:43:56.137Z,40.97
2022-11-05T08:46:24.521Z,38.38
2022-11-05T08:48:54.056Z,37.28
2022-11-05T08:51:22.304Z,43.03
2022-11-05T08:53:50.472Z,40.55
2022-11-05T08:56:18.758Z,36.28
2022-11-05T08:58:47.010Z,39.25
2022-11-05T09:01:15.265Z,43.60
2022-11-05T09:03:43.453Z,45.08
2022-11-05T09:06:13.087Z,43.38
2022-11-05T09:08:41.242Z,42.88
2022-11-05T09:11:09.471Z,38.88
2022-11-05T09:13:37.827Z,42.20
2022-11-05T09:16:06.789Z,42.28
2022-11-05T09:18:35.176Z,47.30
2022-11-05T09:21:03.428Z,43.22
2022-11-05T09:23:32.943Z,42.67
2022-11-05T09:26:01.181Z,41.63
2022-11-05T09:28:30.356Z,43.78
2022-11-05T09:30:58.631Z,39.17
2022-11-05T09:33:28.110Z,41.58
2022-11-05T09:35:56.479Z,42.28
2022-11-05T09:38:24.665Z,42.15
2022-11-05T09:40:58.894Z,41.97
2022-11-05T09:43:32.712Z,40.78
2022-11-05T09:46:06.030Z,44.63
2022-11-05T09:48:35.479Z,44.17
2022-11-05T09:51:06.217Z,45.90
2022-11-05T09:53:39.262Z,39.15
2022-11-05T09:56:19.973Z,46.92
2022-11-05T09:58:52.814Z,45.67
2022-11-05T10:01:25.420Z,48.35
2022-11-05T10:03:57.135Z,49.40
2022-11-05T10:06:27.564Z,44.03
2022-11-05T10:09:02.466Z,43.40
2022-11-05T10:11:36.919Z,51.05
2022-11-05T10:14:14.993Z,46.35
2022-11-05T10:16:47.081Z,41.10
2022-11-05T10:19:22.320Z,48.63
2022-11-05T10:22:07.276Z,44.72
2022-11-05T10:24:36.238Z,52.60
2022-11-05T10:27:06.580Z,41.92
2022-11-05T10:29:36.619Z,45.40
2022-11-05T10:32:07.431Z,47.65
2022-11-05T10:34:38.033Z,44.53
2022-11-05T10:37:06.454Z,48.65
2022-11-05T10:39:35.875Z,47.13
2022-11-05T10:42:24.181Z,48.42
2022-11-05T10:44:59.384Z,50.92
2022-11-05T10:47:43.395Z,45.10
2022-11-05T10:50:13.895Z,48.60
2022-11-05T10:52:53.731Z,47.53
2022-11-05T10:55:25.378Z,45.78
2022-11-05T10:57:55.256Z,46.85
2022-11-05T11:00:29.952Z,48.40
2022-11-05T11:03:00.890Z,51.83
2022-11-05T11:05:32.997Z,44.58
2022-11-05T11:08:23.025Z,44.50
2022-11-05T11:10:53.717Z,51.38
2022-11-05T11:13:25.199Z,48.50
2022-11-05T11:15:54.306Z,49.95
2022-11-05T11:18:32.429Z,50.50
2022-11-05T11:21:13.762Z,47.22
2022-11-05T11:23:43.281Z,47.65
2022-11-05T11:26:14.023Z,52.00
2022-11-05T11:28:49.021Z,49.97
2022-11-05T11:31:22.206Z,51.08
2022-11-05T11:33:53.270Z,47.40
2022-11-05T11:36:27.037Z,49.97
2022-11-05T11:39:01.000Z,47.17
2022-11-05T11:41:33.737Z,46.42
2022-11-05T11:44:08.961Z,57.22
2022-11-05T11:46:37.661Z,50.75
2022-11-05T11:49:07.735Z,51.72
2022-11-05T11:51:40.742Z,61.30
2022-11-05T11:54:21.396Z,49.53
2022-11-05T11:56:50.290Z,52.45
2022-11-05T11:59:46.688Z,55.92
2022-11-05T12:02:50.506Z,47.80
2022-11-05T12:05:41.727Z,55.05
2022-11-05T12:08:33.509Z,55.33
2022-11-05T12:11:07.082Z,55.30
2022-11-05T12:13:55.623Z,65.15
2022-11-05T12:16:45.533Z,53.88
2022-11-05T12:19:24.915Z,59.08
2022-11-05T12:22:01.176Z,63.70
2022-11-05T12:24:51.187Z,59.67
2022-11-05T12:27:31.794Z,61.10
2022-11-05T12:30:06.363Z,58.67
2022-11-05T12:33:04.593Z,59.72
2022-11-05T12:35:49.008Z,59.28
2022-11-05T12:38:32.696Z,58.30
2022-11-05T12:41:13.028Z,66.80
2022-11-05T12:44:08.092Z,63.08
2022-11-05T12:46:44.038Z,59.28
2022-11-05T12:49:53.193Z,56.13
2022-11-05T12:52:39.285Z,59.95
2022-11-05T12:55:12.681Z,64.70
2022-11-05T12:57:44.210Z,63.58
2022-11-05T13:00:20.403Z,57.58
2022-11-05T13:02:55.428Z,67.72
2022-11-05T13:05:34.127Z,62.88
2022-11-05T13:08:07.553Z,60.83
2022-11-05T13:10:40.793Z,63.03
2022-11-05T13:13:17.617Z,68.95
2022-11-05T13:15:52.003Z,71.72
2022-11-05T13:18:25.117Z,72.05
2022-11-05T13:20:56.420Z,62.55
2022-11-05T13:23:31.183Z,74.40
2022-11-05T13:26:04.424Z,70.70
2022-11-05T13:28:39.889Z,65.00
2022-11-05T13:31:14.629Z,65.97
2022-11-05T13:33:46.510Z,65.43
2022-11-05T13:36:38.277Z,74.50
2022-11-05T13:39:16.204Z,68.07
2022-11-05T13:42:05.954Z,61.25
2022-11-05T13:44:59.646Z,65.22
2022-11-05T13:47:42.816Z,64.32
2022-11-05T13:50:38.683Z,62.40
2022-11-05T13:53:42.767Z,61.13
2022-11-05T13:56:24.573Z,59.75
2022-11-05T13:59:19.803Z,59.25
2022-11-05T14:01:51.703Z,64.80
2022-11-05T14:04:32.375Z,61.70
2022-11-05T14:07:09.833Z,62.97
2022-11-05T14:09:41.117Z,61.88
2022-11-05T14:12:19.977Z,57.92
2022-11-05T14:14:58.509Z,57.15
2022-11-05T14:17:32.559Z,59.33
2022-11-05T14:20:39.649Z,59.17
2022-11-05T14:23:46.754Z,57.92
2022-11-05T14:26:22.568Z,52.75
2022-11-05T14:29:13.353Z,57.45
2022-11-05T14:32:08.332Z,54.20
2022-11-05T14:34:47.145Z,55.88
2022-11-05T14:37:33.386Z,57.63
2022-11-05T14:40:29.783Z,55.88
2022-11-05T14:43:02.091Z,55.83
2022-11-05T14:45:32.797Z,57.35
2022-11-05T14:48:03.211Z,57.10
2022-11-05T14:50:38.094Z,52.40
2022-11-05T14:53:24.794Z,54.28
2022-11-05T14:56:01.177Z,52.88
2022-11-05T14:58:33.745Z,54.97
2022-11-05T15:01:03.633Z,57.08
2022-11-05T15:04:04.015Z,55.00
2022-11-05T15:06:34.581Z,54.75
2022-11-05T15:09:23.649Z,49.88
2022-11-05T15:12:04.847Z,54.35
2022-11-05T15:14:39.018Z,55.17
2022-11-05T15:17:16.786Z,55.92
2022-11-05T15:19:45.752Z,53.67
2022-11-05T15:22:27.703Z,54.78
2022-11-05T15:24:56.754Z,53.83
2022-11-05T15:27:48.674Z,54.72
2022-11-05T15:30:20.750Z,58.58
2022-11-05T15:32:49.161Z,56.53
2022-11-05T15:35:23.606Z,51.85
2022-11-05T15:37:58.809Z,52.47
2022-11-05T15:40:32.986Z,52.47
2022-11-05T15:43:20.743Z,63.97
2022-11-05T15:46:09.432Z,59.05
2022-11-05T15:48:38.242Z,55.13
2022-11-05T15:51:07.121Z,47.75
2022-11-05T15:54:02.282Z,50.55
2022-11-05T15:56:32.150Z,49.53
2022-11-05T15:59:02.813Z,50.22
2022-11-05T16:01:35.061Z,49.00
2022-11-05T16:04:15.116Z,53.97
2022-11-05T16:06:45.887Z,50.85
2022-11-05T16:09:23.227Z,55.90
2022-11-05T16:12:10.004Z,50.97
2022-11-05T16:14:38.506Z,53.80
2022-11-05T16:17:20.335Z,49.38
2022-11-05T16:19:49.419Z,48.88
2022-11-05T16:22:17.777Z,51.75
2022-11-05T16:24:46.664Z,48.35
2022-11-05T16:27:19.365Z,47.20
2022-11-05T16:29:51.873Z,50.97
2022-11-05T16:32:30.306Z,50.53
2022-11-05T16:35:02.194Z,44.97
2022-11-05T16:37:41.212Z,46.63
2022-11-05T16:40:15.386Z,49.78
2022-11-05T16:42:45.482Z,51.33
2022-11-05T16:45:14.916Z,46.78
2022-11-05T16:47:45.879Z,47.72
2022-11-05T16:50:20.241Z,44.08
2022-11-05T16:52:49.152Z,42.78
2022-11-05T16:55:18.519Z,41.05
2022-11-05T16:57:50.025Z,45.22
2022-11-05T17:00:20.837Z,44.45
2022-11-05T17:02:50.807Z,42.33
2022-11-05T17:05:24.960Z,46.80
2022-11-05T17:07:54.117Z,45.50
2022-11-05T17:10:24.109Z,49.70
2022-11-05T17:12:53.037Z,48.92
2022-11-05T17:15:24.344Z,53.67
2022-11-05T17:17:56.424Z,44.30
2022-11-05T17:20:35.139Z,46.78
2022-11-05T17:23:08.391Z,45.05
2022-11-05T17:25:36.662Z,42.97
2022-11-05T17:28:05.515Z,45.08
2022-11-05T17:30:33.866Z,40.83
2022-11-05T17:33:03.753Z,45.10
2022-11-05T17:35:32.464Z,43.30
2022-11-05T17:38:00.682Z,49.53
2022-11-05T17:40:29.814Z,44.38
2022-11-05T17:42:58.144Z,45.45
2022-11-05T17:45:26.448Z,42.17
2022-11-05T17:47:54.984Z,43.22
2022-11-05T17:50:24.499Z,50.13
2022-11-05T17:52:52.739Z,51.75
2022-11-05T17:55:21.020Z,51.33
2022-11-05T17:57:52.268Z,47.70
2022-11-05T18:00:22.801Z,49.38
2022-11-05T18:02:53.102Z,53.72
2022-11-05T18:05:22.324Z,58.13
2022-11-05T18:07:52.497Z,54.25
2022-11-05T18:10:21.268Z,55.72
2022-11-05T18:12:50.097Z,55.47
2022-11-05T18:15:18.813Z,58.10
2022-11-05T18:17:47.264Z,55.50
2022-11-05T18:20:19.793Z,59.65
2022-11-05T18:22:51.539Z,58.13
2022-11-05T18:25:20.340Z,61.20
2022-11-05T18:27:48.525Z,64.10
2022-11-05T18:30:16.875Z,55.50
2022-11-05T18:32:45.619Z,61.53
2022-11-05T18:35:14.604Z,55.80
2022-11-05T18:37:43.422Z,55.80
2022-11-05T18:40:14.111Z,54.85
2022-11-05T18:42:42.467Z,56.88
2022-11-05T18:45:11.738Z,54.03
2022-11-05T18:47:40.224Z,51.03
2022-11-05T18:50:10.569Z,50.85
2022-11-05T18:52:38.949Z,50.40
2022-11-05T18:55:08.512Z,49.00
2022-11-05T18:57:38.249Z,53.72
2022-11-05T19:00:07.509Z,49.35
2022-11-05T19:02:35.925Z,48.10
2022-11-05T19:05:28.089Z,36.78
2022-11-05T19:07:52.770Z,31.20
2022-11-05T19:10:21.057Z,34.53
2022-11-05T19:12:50.735Z,33.17
2022-11-05T19:15:19.198Z,30.27
2022-11-05T19:17:47.821Z,31.00
2022-11-05T19:20:16.068Z,33.95
2022-11-05T19:22:44.348Z,31.90
2022-11-05T19:25:12.523Z,27.67
2022-11-05T19:27:42.611Z,30.00
2022-11-05T19:30:13.883Z,30.15
2022-11-05T19:32:42.261Z,29.58
2022-11-05T19:35:10.738Z,22.75
2022-11-05T19:37:39.086Z,22.83
2022-11-05T19:40:08.977Z,23.25
2022-11-05T19:42:37.367Z,20.30
2022-11-05T19:45:30.189Z,21.60
2022-11-05T19:47:56.020Z,20.50
2022-11-05T19:50:24.517Z,24.13
2022-11-05T19:52:52.751Z,18.15
2022-11-05T19:55:20.972Z,23.30
2022-11-05T19:57:49.299Z,18.20
2022-11-05T20:00:18.076Z,23.50
2022-11-05T20:02:46.841Z,21.85
2022-11-05T20:05:19.774Z,22.85
2022-11-05T20:07:52.828Z,19.55
2022-11-05T20:10:22.195Z,22.25
2022-11-05T20:12:50.798Z,17.23
2022-11-05T20:15:22.085Z,20.40
2022-11-05T20:17:52.096Z,25.67
2022-11-05T20:20:21.870Z,22.92
2022-11-05T20:22:52.838Z,28.67
2022-11-05T20:25:23.773Z,25.10
2022-11-05T20:27:52.085Z,28.20
2022-11-05T20:30:20.396Z,26.00
2022-11-05T20:32:48.832Z,25.77
2022-11-05T20:35:17.103Z,25.38
2022-11-05T20:37:51.208Z,26.20
2022-11-05T20:40:23.487Z,26.63
2022-11-05T20:42:51.721Z,28.77
2022-11-05T20:45:22.282Z,37.83
2022-11-05T20:47:53.315Z,29.67
2022-11-05T20:50:23.317Z,30.35
2022-11-05T20:52:52.872Z,35.75
2022-11-05T20:55:21.167Z,31.60
2022-11-05T20:57:51.708Z,32.50
2022-11-05T21:00:20.201Z,36.17
2022-11-05T21:02:48.538Z,34.25
2022-11-05T21:05:22.156Z,31.20
2022-11-05T21:07:52.819Z,34.40
2022-11-05T21:10:22.313Z,35.50
2022-11-05T21:12:50.503Z,33.33
2022-11-05T21:15:23.230Z,37.50
2022-11-05T21:17:51.711Z,31.27
2022-11-05T21:20:20.278Z,31.80
2022-11-05T21:22:48.560Z,37.15
2022-11-05T21:25:17.037Z,37.40
2022-11-05T21:27:49.766Z,35.08
2022-11-05T21:30:18.376Z,29.10
2022-11-05T21:32:46.699Z,27.83
2022-11-05T21:35:15.050Z,38.38
2022-11-05T21:37:44.254Z,34.83
2022-11-05T21:40:13.029Z,37.08
2022-11-05T21:42:44.266Z,36.38
2022-11-05T21:45:14.057Z,31.95
2022-11-05T21:47:42.458Z,30.88
2022-11-05T21:50:10.760Z,27.40
2022-11-05T21:53:01.402Z,33.38
2022-11-05T21:55:47.176Z,33.80
2022-11-05T21:58:36.273Z,34.33
2022-11-05T22:01:06.218Z,36.30
2022-11-05T22:03:34.412Z,39.03
2022-11-05T22:06:02.743Z,36.35
2022-11-05T22:08:30.963Z,33.78
2022-11-05T22:10:59.247Z,37.22
2022-11-05T22:13:27.413Z,28.33
2022-11-05T22:15:56.556Z,40.47
2022-11-05T22:18:26.230Z,36.08
2022-11-05T22:20:54.493Z,30.90
2022-11-05T22:23:22.762Z,31.92
2022-11-05T22:25:51.006Z,37.10
2022-11-05T22:28:19.153Z,31.25
2022-11-05T22:30:47.531Z,38.58
2022-11-05T22:33:15.668Z,32.20
2022-11-05T22:35:45.286Z,39.90
2022-11-05T22:38:13.996Z,35.35
2022-11-05T22:40:42.470Z,30.35
2022-11-05T22:43:10.679Z,36.53
2022-11-05T22:45:39.022Z,29.20
2022-11-05T22:48:08.117Z,40.10
2022-11-05T22:50:36.384Z,43.75
2022-11-05T22:53:06.087Z,28.25
2022-11-05T22:55:34.432Z,32.30
2022-11-05T22:58:02.588Z,31.63
2022-11-05T23:00:37.263Z,29.60
2022-11-05T23:03:05.723Z,34.38
2022-11-05T23:05:34.065Z,38.90
2022-11-05T23:08:19.691Z,32.15
2022-11-05T23:11:06.544Z,31.92
2022-11-05T23:13:35.263Z,33.35
2022-11-05T23:16:20.903Z,31.80
2022-11-05T23:19:06.911Z,35.67
2022-11-05T23:21:52.569Z,35.08
2022-11-05T23:24:20.846Z,30.30
2022-11-05T23:26:54.048Z,32.33
2022-11-05T23:29:25.617Z,32.92
2022-11-05T23:32:11.768Z,34.20
2022-11-05T23:34:40.406Z,33.92
2022-11-05T23:37:26.472Z,34.80
2022-11-05T23:39:54.993Z,30.95
2022-11-05T23:42:42.241Z,34.17
2022-11-05T23:45:29.066Z,30.42
2022-11-05T23:48:23.176Z,28.98
2022-11-05T23:50:54.360Z,38.85
2022-11-05T23:53:23.007Z,32.10
2022-11-05T23:55:51.591Z,35.00
2022-11-05T23:58:21.334Z,36.63
